createdAt,value
2019-05-07T00:02:13.371Z,16.77
2019-05-07T00:04:42.781Z,17.10
2019-05-07T00:07:12.996Z,19.97
2019-05-07T00:09:43.023Z,21.37
2019-05-07T00:12:12.612Z,16.83
2019-05-07T00:14:42.947Z,19.20
2019-05-07T00:17:13.048Z,16.13
2019-05-07T00:19:43.168Z,17.63
2019-05-07T00:22:12.584Z,16.77
2019-05-07T00:24:42.667Z,18.20
2019-05-07T00:27:13.080Z,17.53
2019-05-07T00:29:44.119Z,16.53
2019-05-07T00:32:12.662Z,18.60
2019-05-07T00:34:46.185Z,16.57
2019-05-07T00:37:38.467Z,16.60
2019-05-07T00:40:15.443Z,18.40
2019-05-07T00:43:22.706Z,16.95
2019-05-07T00:45:56.816Z,15.17
2019-05-07T00:48:24.825Z,13.17
2019-05-07T00:50:57.840Z,15.73
2019-05-07T00:53:26.345Z,13.47
2019-05-07T00:55:54.847Z,16.33
2019-05-07T00:58:26.695Z,14.93
2019-05-07T01:00:53.647Z,16.33
2019-05-07T01:03:22.345Z,13.80
2019-05-07T01:05:52.756Z,14.50
2019-05-07T01:08:22.591Z,14.23
2019-05-07T01:10:52.841Z,15.20
2019-05-07T01:13:23.352Z,13.57
2019-05-07T01:15:53.225Z,16.60
2019-05-07T01:18:23.349Z,14.30
2019-05-07T01:20:53.366Z,16.23
2019-05-07T01:23:22.927Z,15.10
2019-05-07T01:25:52.587Z,16.50
2019-05-07T01:28:22.323Z,15.87
2019-05-07T01:30:52.830Z,15.00
2019-05-07T01:33:35.799Z,17.10
2019-05-07T01:36:17.046Z,11.70
2019-05-07T01:38:45.552Z,12.77
2019-05-07T01:41:14.068Z,15.27
2019-05-07T01:43:43.036Z,13.53
2019-05-07T01:46:12.263Z,13.13
2019-05-07T01:48:42.998Z,15.58
2019-05-07T01:51:12.839Z,13.37
2019-05-07T01:53:42.989Z,14.13
2019-05-07T01:56:12.396Z,13.43
2019-05-07T01:58:42.491Z,12.30
2019-05-07T02:01:13.106Z,13.80
2019-05-07T02:04:02.334Z,14.77
2019-05-07T02:06:38.268Z,16.00
2019-05-07T02:09:35.483Z,15.73
2019-05-07T02:12:35.314Z,11.43
2019-05-07T02:15:04.904Z,11.87
2019-05-07T02:17:33.339Z,14.10
2019-05-07T02:20:02.588Z,14.70
2019-05-07T02:22:32.020Z,12.80
2019-05-07T02:25:03.069Z,18.13
2019-05-07T02:27:33.096Z,14.60
2019-05-07T02:30:04.094Z,12.50
2019-05-07T02:32:33.517Z,13.87
2019-05-07T02:35:03.992Z,12.83
2019-05-07T02:37:48.450Z,14.27
2019-05-07T02:40:29.889Z,14.30
2019-05-07T02:42:58.388Z,14.90
2019-05-07T02:45:33.710Z,14.03
2019-05-07T02:48:03.484Z,21.50
2019-05-07T02:50:38.723Z,14.43
2019-05-07T02:53:17.690Z,15.60
2019-05-07T02:55:46.243Z,15.35
2019-05-07T02:58:14.848Z,16.77
2019-05-07T03:00:43.650Z,19.93
2019-05-07T03:03:13.779Z,15.53
2019-05-07T03:05:43.391Z,15.17
2019-05-07T03:08:13.525Z,12.67
2019-05-07T03:10:43.534Z,13.83
2019-05-07T03:13:13.748Z,14.07
2019-05-07T03:15:43.626Z,15.20
2019-05-07T03:18:13.791Z,13.13
2019-05-07T03:20:53.843Z,11.37
2019-05-07T03:23:26.290Z,13.03
2019-05-07T03:26:17.502Z,15.10
2019-05-07T03:29:03.661Z,15.40
2019-05-07T03:31:37.422Z,13.83
2019-05-07T03:34:28.172Z,16.60
2019-05-07T03:36:59.465Z,13.30
2019-05-07T03:39:27.954Z,15.03
2019-05-07T03:41:56.522Z,15.17
2019-05-07T03:44:33.789Z,12.83
2019-05-07T03:47:16.016Z,12.03
2019-05-07T03:49:44.465Z,15.47
2019-05-07T03:52:13.670Z,13.17
2019-05-07T03:54:43.066Z,13.63
2019-05-07T03:57:15.728Z,14.87
2019-05-07T03:59:43.250Z,16.73
2019-05-07T04:02:14.155Z,15.03
2019-05-07T04:04:43.392Z,15.30
2019-05-07T04:07:13.887Z,14.60
2019-05-07T04:09:43.783Z,12.98
2019-05-07T04:12:13.280Z,12.73
2019-05-07T04:14:43.195Z,11.50
2019-05-07T04:17:17.499Z,15.67
2019-05-07T04:19:44.086Z,13.93
2019-05-07T04:22:13.465Z,12.77
2019-05-07T04:25:04.155Z,15.13
2019-05-07T04:27:36.711Z,12.47
2019-05-07T04:30:05.365Z,12.53
2019-05-07T04:32:43.191Z,13.67
2019-05-07T04:35:15.873Z,15.33
2019-05-07T04:37:44.402Z,16.87
2019-05-07T04:40:13.593Z,12.47
2019-05-07T04:42:42.868Z,15.30
2019-05-07T04:45:13.656Z,14.77
2019-05-07T04:47:46.985Z,15.03
2019-05-07T04:50:14.277Z,17.13
2019-05-07T04:52:43.610Z,14.27
2019-05-07T04:55:13.790Z,12.77
2019-05-07T04:57:43.774Z,14.80
2019-05-07T05:00:13.623Z,11.87
2019-05-07T05:02:49.407Z,12.77
2019-05-07T05:05:18.560Z,14.43
2019-05-07T05:07:47.048Z,12.27
2019-05-07T05:10:15.595Z,12.93
2019-05-07T05:12:44.145Z,14.23
2019-05-07T05:15:12.823Z,13.17
2019-05-07T05:17:50.495Z,9.03
2019-05-07T05:20:13.118Z,11.43
2019-05-07T05:23:02.467Z,10.13
2019-05-07T05:25:34.081Z,13.73
2019-05-07T05:28:02.608Z,13.90
2019-05-07T05:30:42.447Z,13.40
2019-05-07T05:33:12.606Z,8.87
2019-05-07T05:35:43.079Z,14.40
2019-05-07T05:38:12.678Z,13.00
2019-05-07T05:40:42.786Z,11.00
2019-05-07T05:43:31.969Z,9.53
2019-05-07T05:46:02.697Z,10.37
2019-05-07T05:48:33.329Z,10.93
2019-05-07T05:51:22.621Z,10.30
2019-05-07T05:53:55.594Z,11.20
2019-05-07T05:56:49.368Z,10.20
2019-05-07T05:59:48.012Z,9.17
2019-05-07T06:02:18.420Z,11.43
2019-05-07T06:05:08.891Z,12.83
2019-05-07T06:07:42.811Z,10.60
2019-05-07T06:10:33.417Z,9.67
2019-05-07T06:13:13.431Z,10.73
2019-05-07T06:15:59.658Z,11.93
2019-05-07T06:19:06.317Z,11.00
2019-05-07T06:21:54.119Z,10.93
2019-05-07T06:24:33.559Z,13.60
2019-05-07T06:27:02.909Z,10.77
2019-05-07T06:29:32.987Z,10.77
2019-05-07T06:32:03.830Z,14.47
2019-05-07T06:34:34.255Z,11.30
2019-05-07T06:37:02.555Z,12.87
2019-05-07T06:39:37.658Z,9.20
2019-05-07T06:42:23.943Z,10.93
2019-05-07T06:45:12.345Z,9.00
2019-05-07T06:47:42.483Z,9.87
2019-05-07T06:50:12.489Z,8.87
2019-05-07T06:52:42.528Z,10.00
2019-05-07T06:55:12.180Z,10.50
2019-05-07T06:57:42.527Z,8.23
2019-05-07T07:00:31.892Z,8.03
2019-05-07T07:03:08.912Z,11.83
2019-05-07T07:06:04.907Z,6.40
2019-05-07T07:08:41.958Z,7.40
2019-05-07T07:11:22.288Z,7.10
2019-05-07T07:13:51.970Z,7.40
2019-05-07T07:16:22.536Z,7.80
2019-05-07T07:18:54.935Z,7.73
2019-05-07T07:21:22.037Z,6.33
2019-05-07T07:23:52.362Z,7.05
2019-05-07T07:26:22.206Z,7.43
2019-05-07T07:28:52.478Z,7.97
2019-05-07T07:31:27.965Z,8.67
2019-05-07T07:33:58.139Z,9.30
2019-05-07T07:36:29.310Z,8.90
2019-05-07T07:38:58.408Z,9.17
2019-05-07T07:41:34.823Z,8.80
2019-05-07T07:44:04.321Z,9.83
2019-05-07T07:46:33.425Z,9.43
2019-05-07T07:49:10.194Z,9.80
2019-05-07T07:51:41.140Z,10.33
2019-05-07T07:54:04.474Z,9.13
2019-05-07T07:56:53.855Z,8.40
2019-05-07T07:59:47.100Z,10.67
2019-05-07T08:02:38.253Z,11.07
2019-05-07T08:05:07.677Z,7.27
2019-05-07T08:07:36.876Z,8.10
2019-05-07T08:10:06.648Z,7.73
2019-05-07T08:12:35.732Z,6.87
2019-05-07T08:15:16.866Z,8.77
2019-05-07T08:17:36.266Z,9.23
2019-05-07T08:20:06.417Z,7.77
2019-05-07T08:22:35.526Z,9.43
2019-05-07T08:25:05.146Z,9.13
2019-05-07T08:27:34.240Z,6.90
2019-05-07T08:30:04.270Z,8.78
2019-05-07T08:32:56.744Z,8.60
2019-05-07T08:35:38.662Z,5.83
2019-05-07T08:38:07.764Z,8.53
2019-05-07T08:40:36.849Z,7.13
2019-05-07T08:43:06.363Z,5.13
2019-05-07T08:45:58.461Z,7.77
2019-05-07T08:48:32.905Z,9.83
2019-05-07T08:51:02.559Z,6.83
2019-05-07T08:53:32.802Z,8.73
2019-05-07T08:56:03.291Z,8.20
2019-05-07T08:58:32.654Z,6.70
2019-05-07T09:01:03.108Z,6.53
2019-05-07T09:03:44.599Z,7.30
2019-05-07T09:06:14.734Z,6.90
2019-05-07T09:08:43.836Z,7.53
2019-05-07T09:11:13.416Z,8.40
2019-05-07T09:13:42.690Z,9.27
2019-05-07T09:16:13.017Z,7.07
2019-05-07T09:18:42.376Z,9.60
2019-05-07T09:21:12.512Z,7.30
2019-05-07T09:23:42.404Z,6.93
2019-05-07T09:26:13.526Z,8.13
2019-05-07T09:28:52.822Z,7.90
2019-05-07T09:31:29.343Z,6.97
2019-05-07T09:33:58.652Z,8.80
2019-05-07T09:36:33.508Z,6.87
2019-05-07T09:39:02.974Z,8.73
2019-05-07T09:41:32.762Z,7.22
2019-05-07T09:44:03.125Z,8.20
2019-05-07T09:46:32.695Z,7.27
2019-05-07T09:55:23.351Z,10.03
2019-05-07T09:57:53.789Z,11.43
2019-05-07T10:00:25.873Z,9.00
2019-05-07T10:05:32.144Z,9.80
2019-05-07T10:08:02.072Z,12.40
2019-05-07T10:10:32.879Z,9.77
2019-05-07T10:13:34.299Z,8.70
2019-05-07T10:18:46.458Z,8.27
2019-05-07T10:21:16.148Z,9.10
2019-05-07T10:23:45.865Z,13.23
2019-05-07T10:29:04.887Z,11.83
2019-05-07T10:48:02.537Z,8.98
2019-05-07T10:53:32.546Z,11.20
2019-05-07T10:56:32.734Z,10.43
2019-05-07T10:59:12.218Z,11.60
2019-05-07T11:10:27.960Z,13.23
2019-05-07T11:13:21.882Z,7.70
2019-05-07T11:24:19.083Z,10.67
2019-05-07T11:27:18.710Z,11.83
2019-05-07T11:54:38.255Z,9.17
2019-05-07T12:03:42.946Z,11.03
2019-05-07T12:11:55.619Z,10.07
2019-05-07T12:14:30.948Z,10.37
2019-05-07T12:19:44.109Z,9.37
2019-05-07T12:25:42.377Z,11.27
2019-05-07T12:28:24.825Z,10.63
2019-05-07T13:04:53.839Z,6.90
2019-05-07T13:10:25.829Z,8.53
2019-05-07T13:12:54.972Z,6.80
2019-05-07T13:15:27.836Z,9.07
2019-05-07T13:17:54.875Z,9.50
2019-05-07T13:20:26.310Z,7.73
2019-05-07T13:22:55.398Z,7.70
2019-05-07T13:25:28.180Z,6.30
2019-05-07T13:27:55.266Z,7.33
2019-05-07T13:30:27.416Z,7.47
2019-05-07T13:32:57.272Z,9.17
2019-05-07T13:35:26.997Z,8.37
2019-05-07T13:38:14.798Z,5.53
2019-05-07T13:41:02.184Z,7.80
2019-05-07T13:43:36.449Z,6.73
2019-05-07T13:46:24.737Z,5.10
2019-05-07T13:48:54.465Z,7.23
2019-05-07T13:51:23.556Z,6.17
2019-05-07T13:53:52.888Z,8.97
2019-05-07T13:56:23.195Z,6.77
2019-05-07T13:58:52.317Z,8.50
2019-05-07T14:01:33.858Z,6.33
2019-05-07T14:04:04.051Z,5.87
2019-05-07T14:06:39.298Z,7.13
2019-05-07T14:09:15.246Z,8.40
2019-05-07T14:11:44.395Z,7.07
2019-05-07T14:14:13.460Z,6.60
2019-05-07T14:16:45.026Z,8.03
2019-05-07T14:19:13.484Z,7.23
2019-05-07T14:21:42.657Z,6.13
2019-05-07T14:24:12.347Z,10.80
2019-05-07T14:26:42.562Z,6.37
2019-05-07T14:29:11.658Z,8.50
2019-05-07T14:31:42.638Z,6.50
2019-05-07T14:34:23.509Z,10.37
2019-05-07T14:37:12.789Z,7.80
2019-05-07T14:39:42.537Z,6.77
2019-05-07T14:42:15.513Z,5.77
2019-05-07T14:44:48.520Z,8.53
2019-05-07T14:47:19.119Z,7.50
2019-05-07T14:49:48.934Z,8.40
2019-05-07T14:52:29.006Z,6.93
2019-05-07T14:54:48.931Z,8.03
2019-05-07T14:57:18.036Z,7.10
2019-05-07T14:59:47.128Z,10.73
2019-05-07T15:02:16.315Z,7.73
2019-05-07T15:04:45.393Z,7.03
2019-05-07T15:07:14.457Z,8.43
2019-05-07T15:09:43.630Z,7.00
2019-05-07T15:12:14.837Z,7.73
2019-05-07T15:14:44.136Z,7.33
2019-05-07T15:17:22.939Z,8.27
2019-05-07T15:19:52.203Z,6.07
2019-05-07T15:22:49.834Z,7.57
2019-05-07T15:25:17.098Z,8.53
2019-05-07T15:27:48.718Z,8.23
2019-05-07T15:30:18.993Z,8.43
2019-05-07T15:32:48.207Z,6.20
2019-05-07T15:35:17.316Z,8.57
2019-05-07T15:37:46.603Z,8.67
2019-05-07T15:40:16.144Z,5.40
2019-05-07T15:42:45.394Z,7.60
2019-05-07T15:45:15.376Z,8.70
2019-05-07T15:47:47.499Z,8.63
2019-05-07T15:50:16.910Z,8.97
2019-05-07T15:52:58.638Z,9.17
2019-05-07T15:55:27.705Z,7.37
2019-05-07T15:57:57.370Z,9.33
2019-05-07T16:00:28.219Z,4.90
2019-05-07T16:03:05.809Z,7.30
2019-05-07T16:05:34.894Z,6.90
2019-05-07T16:08:05.386Z,8.07
2019-05-07T16:10:34.473Z,6.87
2019-05-07T16:13:04.036Z,8.43
2019-05-07T16:15:34.308Z,7.50
2019-05-07T16:18:07.003Z,6.10
2019-05-07T16:20:36.104Z,5.90
2019-05-07T16:23:14.807Z,9.17
2019-05-07T16:25:36.066Z,7.80
2019-05-07T16:28:05.193Z,7.57
2019-05-07T16:30:34.349Z,7.37
2019-05-07T16:33:03.475Z,7.63
2019-05-07T16:35:32.560Z,8.40
2019-05-07T16:38:02.618Z,6.87
2019-05-07T16:40:32.425Z,7.10
2019-05-07T16:43:02.734Z,7.43
2019-05-07T16:45:32.097Z,5.53
2019-05-07T16:48:03.217Z,7.10
2019-05-07T16:50:32.753Z,5.60
2019-05-07T16:53:02.813Z,5.23
2019-05-07T16:55:36.890Z,5.07
2019-05-07T16:58:25.440Z,7.43
2019-05-07T17:01:00.163Z,8.00
2019-05-07T17:03:36.823Z,6.60
2019-05-07T17:06:06.081Z,7.20
2019-05-07T17:08:42.792Z,5.00
2019-05-07T17:11:12.252Z,7.70
2019-05-07T17:13:42.414Z,7.53
2019-05-07T17:16:12.969Z,5.07
2019-05-07T17:18:46.911Z,6.00
2019-05-07T17:21:22.948Z,6.67
2019-05-07T17:24:29.094Z,5.97
2019-05-07T17:26:58.227Z,5.70
2019-05-07T17:29:27.349Z,7.73
2019-05-07T17:31:56.420Z,5.33
2019-05-07T17:34:25.498Z,4.07
2019-05-07T17:36:54.604Z,8.10
2019-05-07T17:39:23.710Z,6.27
2019-05-07T17:42:11.948Z,5.67
2019-05-07T17:44:41.062Z,8.47
2019-05-07T17:47:12.649Z,8.47
2019-05-07T17:50:22.812Z,6.80
2019-05-07T17:52:53.444Z,5.30
2019-05-07T17:55:33.254Z,6.23
2019-05-07T17:58:02.461Z,5.67
2019-05-07T18:00:53.349Z,6.47
2019-05-07T18:03:32.304Z,7.47
2019-05-07T18:06:46.977Z,5.53
2019-05-07T18:09:07.610Z,6.93
2019-05-07T18:11:36.714Z,5.37
2019-05-07T18:14:25.030Z,8.47
2019-05-07T18:17:17.413Z,5.80
2019-05-07T18:19:48.966Z,6.33
2019-05-07T18:22:45.739Z,5.77
2019-05-07T18:25:47.585Z,6.30
2019-05-07T18:28:47.014Z,5.03
2019-05-07T18:31:50.180Z,8.40
2019-05-07T18:34:19.425Z,6.23
2019-05-07T18:37:07.595Z,6.60
2019-05-07T18:39:36.709Z,5.07
2019-05-07T18:42:24.911Z,5.57
2019-05-07T18:44:53.981Z,5.53
2019-05-07T18:47:23.141Z,5.87
2019-05-07T18:50:12.770Z,3.80
2019-05-07T18:52:42.421Z,5.07
2019-05-07T18:55:12.373Z,5.07
2019-05-07T18:58:02.643Z,5.57
2019-05-07T19:00:35.017Z,5.10
2019-05-07T19:03:04.290Z,6.33
2019-05-07T19:05:33.476Z,6.07
2019-05-07T19:08:07.996Z,6.47
2019-05-07T19:10:33.534Z,4.10
2019-05-07T19:13:02.743Z,7.47
2019-05-07T19:15:32.882Z,4.17
2019-05-07T19:18:02.668Z,9.23
2019-05-07T19:20:32.628Z,4.50
2019-05-07T19:23:02.809Z,6.77
2019-05-07T19:25:32.677Z,5.00
2019-05-07T19:28:02.182Z,4.87
2019-05-07T19:30:32.600Z,5.47
2019-05-07T19:33:02.054Z,5.07
2019-05-07T19:35:32.745Z,6.40
2019-05-07T19:38:02.865Z,6.23
2019-05-07T19:40:32.591Z,4.17
2019-05-07T19:43:02.984Z,6.53
2019-05-07T19:45:32.304Z,9.10
2019-05-07T19:48:02.873Z,4.93
2019-05-07T19:50:32.480Z,6.97
2019-05-07T19:53:02.902Z,7.23
2019-05-07T19:55:52.554Z,6.37
2019-05-07T19:58:22.948Z,7.27
2019-05-07T20:00:57.037Z,4.47
2019-05-07T20:03:23.885Z,6.53
2019-05-07T20:05:52.988Z,6.33
2019-05-07T20:08:22.165Z,7.63
2019-05-07T20:10:56.960Z,6.43
2019-05-07T20:13:27.382Z,8.37
2019-05-07T20:16:07.046Z,8.83
2019-05-07T20:18:36.091Z,6.50
2019-05-07T20:21:05.227Z,8.10
2019-05-07T20:23:34.276Z,7.00
2019-05-07T20:26:03.504Z,8.63
2019-05-07T20:28:32.872Z,6.77
2019-05-07T20:31:02.022Z,6.87
2019-05-07T20:33:32.761Z,7.97
2019-05-07T20:36:02.632Z,6.83
2019-05-07T20:38:32.175Z,7.28
2019-05-07T20:41:02.171Z,7.83
2019-05-07T20:43:32.653Z,8.00
2019-05-07T20:46:02.714Z,7.97
2019-05-07T20:48:32.472Z,9.30
2019-05-07T20:51:01.890Z,7.67
2019-05-07T20:53:48.703Z,9.90
2019-05-07T20:56:19.461Z,8.63
2019-05-07T20:58:48.540Z,7.90
2019-05-07T21:01:17.597Z,9.57
2019-05-07T21:03:46.655Z,9.80
2019-05-07T21:06:15.725Z,8.37
2019-05-07T21:08:44.815Z,7.13
2019-05-07T21:11:13.920Z,7.77
2019-05-07T21:13:44.607Z,12.23
2019-05-07T21:16:13.950Z,10.50
2019-05-07T21:18:43.018Z,6.63
2019-05-07T21:21:12.626Z,7.53
2019-05-07T21:23:43.359Z,8.53
2019-05-07T21:26:13.775Z,10.43
2019-05-07T21:28:43.327Z,7.07
2019-05-07T21:31:12.667Z,7.40
2019-05-07T21:33:42.875Z,6.87
2019-05-07T21:36:12.352Z,9.93
2019-05-07T21:38:42.600Z,7.90
2019-05-07T21:41:12.956Z,8.97
2019-05-07T21:43:45.728Z,7.90
2019-05-07T21:46:14.592Z,9.50
2019-05-07T21:48:43.698Z,7.87
2019-05-07T21:51:12.857Z,8.53
2019-05-07T21:53:53.768Z,6.63
2019-05-07T21:56:33.457Z,7.13
2019-05-07T21:59:06.090Z,5.70
2019-05-07T22:01:46.185Z,7.97
2019-05-07T22:04:16.388Z,6.10
2019-05-07T22:06:45.740Z,7.80
2019-05-07T22:09:15.403Z,6.00
2019-05-07T22:11:44.483Z,7.27
2019-05-07T22:14:13.576Z,7.03
2019-05-07T22:16:42.807Z,9.47
2019-05-07T22:19:12.272Z,6.87
2019-05-07T22:21:43.155Z,8.00
2019-05-07T22:24:13.026Z,7.93
2019-05-07T22:26:43.327Z,7.10
2019-05-07T22:29:12.733Z,7.10
2019-05-07T22:31:53.027Z,6.70
2019-05-07T22:34:42.319Z,5.77
2019-05-07T22:37:12.601Z,6.17
2019-05-07T22:39:41.915Z,7.03
2019-05-07T22:42:11.879Z,5.53
2019-05-07T22:44:42.564Z,7.50
2019-05-07T22:47:22.739Z,6.03
2019-05-07T22:49:53.736Z,7.43
2019-05-07T22:52:22.662Z,7.30
2019-05-07T22:54:51.775Z,8.07
2019-05-07T22:57:39.125Z,8.53
2019-05-07T23:00:12.151Z,6.83
2019-05-07T23:02:42.807Z,5.93
2019-05-07T23:05:12.278Z,5.60
2019-05-07T23:07:41.787Z,4.60
2019-05-07T23:10:12.401Z,7.13
2019-05-07T23:12:41.466Z,6.27
2019-05-07T23:15:11.958Z,6.33
2019-05-07T23:17:41.010Z,6.00
2019-05-07T23:20:10.197Z,5.73
2019-05-07T23:22:39.313Z,6.33
2019-05-07T23:25:08.468Z,6.27
2019-05-07T23:27:37.606Z,6.67
2019-05-07T23:30:06.810Z,8.33
2019-05-07T23:32:35.909Z,6.83
2019-05-07T23:35:05.491Z,7.17
2019-05-07T23:37:34.543Z,7.47
2019-05-07T23:40:09.195Z,9.20
2019-05-07T23:42:39.409Z,5.90
2019-05-07T23:45:08.471Z,5.57
2019-05-07T23:47:37.619Z,6.40
2019-05-07T23:50:06.681Z,8.17
2019-05-07T23:52:35.783Z,5.93
2019-05-07T23:55:04.979Z,5.70
2019-05-07T23:57:34.066Z,7.23
